createdAt,value
2018-09-21T00:00:46.711Z,7.80
2018-09-21T00:03:19.147Z,7.23
2018-09-21T00:05:49.012Z,7.00
2018-09-21T00:08:20.931Z,6.67
2018-09-21T00:10:50.807Z,7.70
2018-09-21T00:13:20.633Z,6.63
2018-09-21T00:15:50.686Z,9.53
2018-09-21T00:18:20.587Z,10.10
2018-09-21T00:20:50.653Z,8.50
2018-09-21T00:23:20.588Z,8.90
2018-09-21T00:25:50.693Z,7.83
2018-09-21T00:28:20.911Z,5.47
2018-09-21T00:30:50.983Z,5.77
2018-09-21T00:33:21.019Z,9.73
2018-09-21T00:35:51.161Z,7.70
2018-09-21T00:38:21.098Z,7.30
2018-09-21T00:40:51.001Z,6.73
2018-09-21T00:43:21.059Z,8.60
2018-09-21T00:45:51.086Z,8.70
2018-09-21T00:48:21.140Z,6.33
2018-09-21T00:50:51.358Z,5.20
2018-09-21T00:53:21.199Z,8.90
2018-09-21T00:55:51.378Z,7.73
2018-09-21T00:58:21.243Z,5.10
2018-09-21T01:00:51.608Z,9.63
2018-09-21T01:03:21.659Z,7.77
2018-09-21T01:05:52.017Z,4.97
2018-09-21T01:08:22.183Z,6.03
2018-09-21T01:10:52.364Z,5.57
2018-09-21T01:13:22.411Z,10.33
2018-09-21T01:15:52.288Z,5.90
2018-09-21T01:18:22.266Z,6.20
2018-09-21T01:20:52.404Z,9.83
2018-09-21T01:23:22.471Z,5.83
2018-09-21T01:25:52.288Z,10.33
2018-09-21T01:28:22.180Z,7.10
2018-09-21T01:30:52.989Z,5.23
2018-09-21T01:33:23.188Z,5.40
2018-09-21T01:35:53.344Z,7.93
2018-09-21T01:38:23.399Z,9.70
2018-09-21T01:40:54.572Z,6.13
2018-09-21T01:43:24.616Z,9.30
2018-09-21T01:45:54.468Z,6.50
2018-09-21T01:48:24.348Z,8.10
2018-09-21T01:50:54.190Z,5.80
2018-09-21T01:53:24.082Z,8.27
2018-09-21T01:55:54.007Z,6.80
2018-09-21T01:58:24.128Z,5.13
2018-09-21T02:00:54.197Z,5.60
2018-09-21T02:03:24.125Z,5.40
2018-09-21T02:05:53.965Z,7.00
2018-09-21T02:08:23.952Z,6.27
2018-09-21T02:10:53.979Z,5.77
2018-09-21T02:13:24.058Z,8.47
2018-09-21T02:15:54.284Z,9.00
2018-09-21T02:18:24.320Z,8.47
2018-09-21T02:20:54.118Z,6.30
2018-09-21T02:23:24.360Z,7.00
2018-09-21T02:25:54.674Z,9.00
2018-09-21T02:28:24.855Z,9.83
2018-09-21T02:30:54.867Z,5.60
2018-09-21T02:33:25.456Z,5.80
2018-09-21T02:35:55.446Z,7.33
2018-09-21T02:38:25.826Z,7.47
2018-09-21T02:40:56.378Z,5.70
2018-09-21T02:43:27.092Z,8.47
2018-09-21T02:45:56.932Z,7.27
2018-09-21T02:48:26.976Z,6.37
2018-09-21T02:50:57.144Z,8.83
2018-09-21T02:53:27.108Z,7.00
2018-09-21T02:55:57.149Z,8.80
2018-09-21T02:58:27.249Z,8.30
2018-09-21T03:00:57.376Z,6.27
2018-09-21T03:03:27.247Z,10.07
2018-09-21T03:05:57.182Z,6.10
2018-09-21T03:08:27.196Z,7.70
2018-09-21T03:10:57.502Z,12.63
2018-09-21T03:13:27.992Z,5.53
2018-09-21T03:15:57.876Z,10.30
2018-09-21T03:18:28.154Z,10.80
2018-09-21T03:20:58.035Z,8.63
2018-09-21T03:23:27.920Z,7.67
2018-09-21T03:25:57.856Z,6.77
2018-09-21T03:28:27.879Z,7.27
2018-09-21T03:30:57.949Z,6.23
2018-09-21T03:33:27.803Z,7.77
2018-09-21T03:35:57.716Z,7.03
2018-09-21T03:38:27.608Z,7.80
2018-09-21T03:40:57.432Z,11.13
2018-09-21T03:43:28.216Z,9.50
2018-09-21T03:45:58.041Z,6.47
2018-09-21T03:48:28.122Z,6.60
2018-09-21T03:50:58.176Z,8.40
2018-09-21T03:53:28.456Z,8.10
2018-09-21T03:55:58.439Z,7.00
2018-09-21T03:58:28.419Z,5.90
2018-09-21T04:00:59.034Z,10.80
2018-09-21T04:03:29.020Z,7.23
2018-09-21T04:05:59.357Z,7.40
2018-09-21T04:08:29.356Z,5.73
2018-09-21T04:10:59.295Z,8.07
2018-09-21T04:13:29.509Z,5.73
2018-09-21T04:15:59.547Z,8.53
2018-09-21T04:18:29.517Z,7.73
2018-09-21T04:20:59.551Z,6.20
2018-09-21T04:23:29.915Z,7.20
2018-09-21T04:26:00.162Z,5.60
2018-09-21T04:28:30.301Z,9.17
2018-09-21T04:31:00.925Z,6.20
2018-09-21T04:33:31.051Z,7.27
2018-09-21T04:36:01.017Z,9.83
2018-09-21T04:38:31.001Z,7.57
2018-09-21T04:41:01.022Z,6.87
2018-09-21T04:43:31.316Z,7.77
2018-09-21T04:46:01.381Z,10.43
2018-09-21T04:48:31.354Z,12.23
2018-09-21T04:51:01.244Z,11.60
2018-09-21T04:53:31.095Z,8.70
2018-09-21T04:56:01.062Z,6.13
2018-09-21T04:58:31.706Z,6.13
2018-09-21T05:01:01.815Z,8.73
2018-09-21T05:03:31.751Z,6.27
2018-09-21T05:06:01.616Z,6.43
2018-09-21T05:08:31.635Z,6.87
2018-09-21T05:11:01.542Z,7.33
2018-09-21T05:13:32.517Z,5.00
2018-09-21T05:16:02.503Z,7.53
2018-09-21T05:18:32.667Z,7.70
2018-09-21T05:21:02.772Z,6.30
2018-09-21T05:23:32.916Z,10.17
2018-09-21T05:26:03.114Z,8.57
2018-09-21T05:28:33.191Z,5.97
2018-09-21T05:31:03.096Z,8.00
2018-09-21T05:33:33.072Z,6.73
2018-09-21T05:36:02.980Z,9.07
2018-09-21T05:38:33.103Z,6.20
2018-09-21T05:41:03.062Z,8.30
2018-09-21T05:43:33.102Z,7.30
2018-09-21T05:46:03.041Z,7.50
2018-09-21T05:48:32.889Z,6.90
2018-09-21T05:51:02.883Z,7.20
2018-09-21T05:53:33.328Z,7.60
2018-09-21T05:56:03.162Z,10.33
2018-09-21T05:58:33.130Z,12.23
2018-09-21T06:01:02.992Z,7.80
2018-09-21T06:03:33.161Z,8.57
2018-09-21T06:06:03.097Z,7.00
2018-09-21T06:08:32.923Z,7.50
2018-09-21T06:11:03.049Z,6.47
2018-09-21T06:13:32.993Z,13.33
2018-09-21T06:16:02.835Z,7.97
2018-09-21T06:18:32.731Z,7.90
2018-09-21T06:21:02.761Z,16.10
2018-09-21T06:23:32.935Z,10.77
2018-09-21T06:26:02.764Z,8.10
2018-09-21T06:28:33.041Z,8.33
2018-09-21T06:31:02.978Z,8.37
2018-09-21T06:33:32.886Z,6.93
2018-09-21T06:36:02.969Z,11.30
2018-09-21T06:38:33.188Z,7.20
2018-09-21T06:41:03.013Z,8.10
2018-09-21T06:43:32.856Z,8.93
2018-09-21T06:46:03.023Z,10.53
2018-09-21T06:48:33.053Z,7.90
2018-09-21T06:51:03.099Z,9.37
2018-09-21T06:53:33.025Z,6.83
2018-09-21T06:56:02.918Z,12.67
2018-09-21T06:58:32.964Z,7.03
2018-09-21T07:01:02.786Z,10.07
2018-09-21T07:03:32.991Z,6.33
2018-09-21T07:06:03.336Z,7.10
2018-09-21T07:08:33.331Z,7.10
2018-09-21T07:11:03.341Z,9.43
2018-09-21T07:13:33.738Z,7.30
2018-09-21T07:16:03.782Z,7.97
2018-09-21T07:18:33.867Z,8.73
2018-09-21T07:21:04.088Z,7.13
2018-09-21T07:23:34.148Z,6.30
2018-09-21T07:26:04.116Z,7.93
2018-09-21T07:28:34.259Z,7.90
2018-09-21T07:31:04.311Z,7.87
2018-09-21T07:33:34.273Z,6.33
2018-09-21T07:36:04.490Z,7.77
2018-09-21T07:38:34.465Z,7.13
2018-09-21T07:41:04.364Z,12.17
2018-09-21T07:43:34.301Z,10.57
2018-09-21T07:46:04.265Z,7.30
2018-09-21T07:48:34.128Z,8.90
2018-09-21T07:51:05.433Z,7.60
2018-09-21T07:53:36.342Z,7.73
2018-09-21T07:56:06.206Z,5.90
2018-09-21T07:58:36.173Z,6.63
2018-09-21T08:01:06.104Z,5.07
2018-09-21T08:03:37.039Z,5.80
2018-09-21T08:06:07.364Z,8.70
2018-09-21T08:08:37.264Z,5.40
2018-09-21T08:11:07.219Z,6.13
2018-09-21T08:13:37.976Z,7.00
2018-09-21T08:18:48.847Z,10.30
2018-09-21T08:21:18.706Z,4.80
2018-09-21T08:23:49.228Z,9.60
2018-09-21T08:26:20.890Z,6.70
2018-09-21T08:28:51.317Z,5.00
2018-09-21T08:31:21.719Z,4.53
2018-09-21T08:33:53.795Z,6.67
2018-09-21T08:36:24.094Z,5.70
2018-09-21T08:38:56.211Z,7.23
2018-09-21T08:41:26.585Z,5.37
2018-09-21T08:43:56.625Z,8.10
2018-09-21T08:46:26.507Z,4.60
2018-09-21T08:48:56.612Z,7.17
2018-09-21T08:51:26.543Z,4.83
2018-09-21T08:53:56.875Z,4.23
2018-09-21T08:56:26.809Z,6.37
2018-09-21T08:58:57.406Z,4.80
2018-09-21T09:01:27.262Z,5.90
2018-09-21T09:03:57.121Z,4.57
2018-09-21T09:06:27.240Z,4.40
2018-09-21T09:08:57.444Z,4.90
2018-09-21T09:11:27.374Z,5.57
2018-09-21T09:13:58.752Z,9.13
2018-09-21T09:16:30.175Z,3.77
2018-09-21T09:19:00.289Z,5.27
2018-09-21T09:21:31.103Z,4.53
2018-09-21T09:24:01.013Z,4.63
2018-09-21T09:26:31.090Z,3.67
2018-09-21T09:29:01.219Z,4.23
2018-09-21T09:31:31.346Z,8.77
2018-09-21T09:34:01.492Z,9.90
2018-09-21T09:36:31.344Z,4.70
2018-09-21T09:39:01.418Z,6.53
2018-09-21T09:41:31.744Z,5.03
2018-09-21T09:44:01.565Z,16.57
2018-09-21T09:46:31.740Z,10.17
2018-09-21T09:49:01.954Z,4.20
2018-09-21T09:51:31.748Z,7.13
2018-09-21T09:54:01.640Z,4.70
2018-09-21T09:56:31.732Z,5.50
2018-09-21T09:59:01.687Z,5.73
2018-09-21T10:01:31.741Z,4.53
2018-09-21T10:04:01.960Z,3.23
2018-09-21T10:06:31.771Z,6.53
2018-09-21T10:09:01.684Z,3.67
2018-09-21T10:11:31.739Z,3.70
2018-09-21T10:14:02.045Z,4.93
2018-09-21T10:16:32.142Z,5.43
2018-09-21T10:19:02.156Z,5.10
2018-09-21T10:21:32.000Z,7.50
2018-09-21T10:24:02.079Z,7.20
2018-09-21T10:26:32.015Z,5.17
2018-09-21T10:29:02.211Z,8.80
2018-09-21T10:31:32.046Z,7.20
2018-09-21T10:34:02.237Z,7.83
2018-09-21T10:36:32.371Z,11.17
2018-09-21T10:39:02.481Z,7.60
2018-09-21T10:41:32.346Z,5.20
2018-09-21T10:44:03.598Z,9.40
2018-09-21T10:46:33.742Z,4.17
2018-09-21T10:49:03.822Z,6.40
2018-09-21T10:51:34.573Z,4.33
2018-09-21T10:54:04.688Z,7.17
2018-09-21T10:56:34.612Z,10.43
2018-09-21T10:59:04.902Z,9.37
2018-09-21T11:01:34.944Z,11.23
2018-09-21T11:04:05.649Z,7.90
2018-09-21T11:06:35.821Z,10.63
2018-09-21T11:09:09.351Z,12.20
2018-09-21T11:11:39.696Z,11.57
2018-09-21T11:14:09.604Z,6.60
2018-09-21T11:16:39.732Z,5.40
2018-09-21T11:19:09.803Z,7.07
2018-09-21T11:21:39.995Z,9.47
2018-09-21T11:24:10.071Z,11.73
2018-09-21T11:26:40.108Z,9.93
2018-09-21T11:29:10.156Z,10.83
2018-09-21T11:31:39.955Z,8.50
2018-09-21T11:34:10.129Z,13.23
2018-09-21T11:36:40.080Z,11.90
2018-09-21T11:39:11.268Z,11.80
2018-09-21T11:41:41.394Z,11.00
2018-09-21T11:44:11.301Z,11.70
2018-09-21T11:46:41.250Z,13.53
2018-09-21T11:49:11.301Z,9.13
2018-09-21T11:51:41.416Z,13.20
2018-09-21T11:54:11.448Z,12.40
2018-09-21T11:56:41.579Z,9.60
2018-09-21T11:59:11.390Z,8.03
2018-09-21T12:01:41.375Z,9.60
2018-09-21T12:04:11.563Z,9.27
2018-09-21T12:06:41.376Z,12.47
2018-09-21T12:09:11.112Z,12.63
2018-09-21T12:11:41.404Z,11.73
2018-09-21T12:14:42.728Z,16.40
2018-09-21T12:17:12.660Z,11.00
2018-09-21T12:19:42.612Z,10.53
2018-09-21T12:22:12.418Z,13.23
2018-09-21T12:24:42.334Z,10.00
2018-09-21T12:27:12.227Z,12.10
2018-09-21T12:29:42.182Z,8.73
2018-09-21T12:32:12.065Z,8.47
2018-09-21T12:34:41.951Z,12.77
2018-09-21T12:37:11.863Z,7.80
2018-09-21T12:39:50.749Z,12.07
2018-09-21T12:42:20.903Z,7.00
2018-09-21T12:45:08.008Z,9.47
2018-09-21T12:47:38.024Z,9.00
2018-09-21T12:50:09.323Z,10.77
2018-09-21T12:52:39.327Z,9.63
2018-09-21T12:55:57.666Z,10.43
2018-09-21T12:58:28.131Z,9.30
2018-09-21T13:00:58.506Z,5.70
2018-09-21T13:03:28.738Z,7.33
2018-09-21T13:05:58.921Z,8.87
2018-09-21T13:08:29.231Z,5.87
2018-09-21T13:10:59.457Z,4.87
2018-09-21T13:13:30.370Z,8.97
2018-09-21T13:16:00.724Z,5.83
2018-09-21T13:21:50.341Z,5.60
2018-09-21T13:24:20.532Z,2.47
2018-09-21T13:26:50.942Z,3.57
2018-09-21T13:29:44.572Z,2.73
2018-09-21T13:32:16.720Z,1.77
2018-09-21T13:34:46.897Z,2.80
2018-09-21T13:37:17.043Z,1.90
2018-09-21T13:39:50.624Z,3.40
2018-09-21T13:42:21.274Z,5.03
2018-09-21T13:44:52.520Z,4.33
2018-09-21T14:01:03.283Z,6.30
2018-09-21T14:03:33.288Z,1.73
2018-09-21T14:06:09.930Z,1.40
2018-09-21T14:08:41.044Z,2.40
2018-09-21T14:11:10.807Z,3.03
2018-09-21T14:13:40.693Z,3.47
2018-09-21T14:16:10.882Z,2.23
2018-09-21T14:18:40.704Z,1.40
2018-09-21T14:21:10.826Z,2.53
2018-09-21T14:23:40.641Z,2.33
2018-09-21T14:26:10.496Z,3.13
2018-09-21T14:28:40.379Z,5.10
2018-09-21T14:31:10.440Z,5.10
2018-09-21T14:33:40.829Z,2.43
2018-09-21T14:36:10.760Z,2.40
2018-09-21T14:38:40.990Z,2.80
2018-09-21T14:41:11.400Z,2.87
2018-09-21T14:43:41.757Z,1.77
2018-09-21T14:46:11.825Z,3.80
2018-09-21T14:48:42.302Z,2.53
2018-09-21T14:51:12.678Z,3.57
2018-09-21T14:53:43.091Z,1.73
2018-09-21T14:56:12.959Z,1.47
2018-09-21T14:58:43.255Z,3.77
2018-09-21T15:01:17.738Z,3.00
2018-09-21T15:03:54.597Z,2.47
2018-09-21T15:06:24.699Z,3.50
2018-09-21T15:08:56.457Z,1.63
2018-09-21T15:11:32.026Z,1.33
2018-09-21T15:14:02.279Z,2.70
2018-09-21T15:16:32.253Z,3.13
2018-09-21T15:19:03.211Z,1.63
2018-09-21T15:21:33.641Z,5.70
2018-09-21T15:24:04.203Z,3.77
2018-09-21T15:26:34.131Z,6.10
2018-09-21T15:29:08.916Z,3.30
2018-09-21T15:31:42.399Z,4.13
2018-09-21T15:34:16.008Z,4.33
2018-09-21T15:36:47.072Z,5.33
2018-09-21T15:39:16.976Z,6.90
2018-09-21T15:41:47.874Z,4.27
2018-09-21T15:44:17.915Z,3.37
2018-09-21T15:46:48.757Z,2.53
2018-09-21T15:49:24.507Z,4.67
2018-09-21T15:51:54.577Z,2.90
2018-09-21T15:54:24.690Z,1.53
2018-09-21T15:57:04.106Z,6.00
2018-09-21T15:59:34.202Z,4.13
2018-09-21T16:02:04.840Z,2.73
2018-09-21T16:04:35.532Z,5.40
2018-09-21T16:07:05.596Z,1.37
2018-09-21T16:09:35.647Z,3.67
2018-09-21T16:12:06.130Z,3.13
2018-09-21T16:14:37.148Z,2.17
2018-09-21T16:17:09.561Z,2.10
2018-09-21T16:19:39.703Z,1.77
2018-09-21T16:22:10.775Z,1.97
2018-09-21T16:24:40.706Z,3.07
2018-09-21T16:27:10.581Z,2.37
2018-09-21T16:29:41.593Z,1.90
2018-09-21T16:32:11.452Z,3.57
2018-09-21T16:34:41.615Z,4.03
2018-09-21T16:37:11.524Z,2.90
2018-09-21T16:39:42.284Z,1.57
2018-09-21T16:42:12.507Z,3.33
2018-09-21T16:44:42.580Z,3.67
2018-09-21T16:47:12.344Z,4.90
2018-09-21T16:49:42.487Z,1.90
2018-09-21T16:52:14.214Z,4.17
2018-09-21T16:54:46.527Z,7.13
2018-09-21T16:57:16.470Z,2.53
2018-09-21T16:59:46.815Z,2.67
2018-09-21T17:02:16.841Z,2.40
2018-09-21T17:04:46.966Z,1.20
2018-09-21T17:07:17.332Z,4.63
2018-09-21T17:09:49.684Z,1.30
2018-09-21T17:12:19.905Z,1.63
2018-09-21T17:14:49.691Z,3.17
2018-09-21T17:17:19.670Z,4.17
2018-09-21T17:19:50.021Z,4.23
2018-09-21T17:22:20.039Z,4.50
2018-09-21T17:24:50.060Z,1.90
2018-09-21T17:27:20.275Z,3.07
2018-09-21T17:29:50.665Z,6.10
2018-09-21T17:32:21.136Z,3.50
2018-09-21T17:34:51.066Z,1.13
2018-09-21T17:37:20.848Z,2.23
2018-09-21T17:39:50.667Z,1.53
2018-09-21T17:42:20.452Z,1.60
2018-09-21T17:44:50.467Z,3.53
2018-09-21T17:47:20.213Z,3.03
2018-09-21T17:49:50.164Z,3.43
2018-09-21T17:52:20.245Z,4.37
2018-09-21T17:54:50.277Z,1.90
2018-09-21T17:57:20.240Z,2.50
2018-09-21T17:59:50.007Z,1.90
2018-09-21T18:02:19.821Z,2.00
2018-09-21T18:04:49.870Z,3.40
2018-09-21T18:07:20.520Z,2.07
2018-09-21T18:09:52.962Z,3.33
2018-09-21T18:12:22.986Z,2.30
2018-09-21T18:14:52.919Z,2.20
2018-09-21T18:17:23.137Z,2.80
2018-09-21T18:19:53.210Z,1.60
2018-09-21T18:22:23.246Z,1.50
2018-09-21T18:24:53.081Z,2.07
2018-09-21T18:27:23.098Z,3.43
2018-09-21T18:29:53.102Z,2.47
2018-09-21T18:32:23.129Z,2.90
2018-09-21T18:34:52.944Z,6.13
2018-09-21T18:37:23.753Z,2.23
2018-09-21T18:39:53.719Z,4.30
2018-09-21T18:42:23.800Z,4.03
2018-09-21T18:44:53.640Z,5.30
2018-09-21T18:47:24.451Z,2.33
2018-09-21T18:49:54.483Z,7.10
2018-09-21T18:52:24.516Z,10.90
2018-09-21T18:54:54.312Z,2.40
2018-09-21T18:57:24.256Z,3.00
2018-09-21T18:59:54.356Z,4.57
2018-09-21T19:02:24.390Z,2.30
2018-09-21T19:04:54.591Z,3.60
2018-09-21T19:07:30.219Z,1.40
2018-09-21T19:10:00.567Z,6.33
2018-09-21T19:12:30.474Z,4.23
2018-09-21T19:15:00.477Z,4.10
2018-09-21T19:17:30.423Z,3.80
2018-09-21T19:20:00.227Z,2.00
2018-09-21T19:22:30.039Z,7.70
2018-09-21T19:24:59.931Z,2.60
2018-09-21T19:27:29.946Z,2.20
2018-09-21T19:29:59.746Z,2.70
2018-09-21T19:32:29.563Z,6.63
2018-09-21T19:34:59.451Z,4.27
2018-09-21T19:37:29.490Z,3.33
2018-09-21T19:39:59.362Z,5.60
2018-09-21T19:42:29.197Z,4.87
2018-09-21T19:44:58.944Z,7.90
2018-09-21T19:47:28.750Z,5.53
2018-09-21T19:49:58.597Z,4.50
2018-09-21T19:52:28.699Z,5.90
2018-09-21T19:54:58.719Z,3.83
2018-09-21T19:57:28.620Z,4.87
2018-09-21T19:59:58.720Z,4.20
2018-09-21T20:02:28.656Z,4.23
2018-09-21T20:04:58.744Z,4.23
2018-09-21T20:07:28.511Z,3.30
2018-09-21T20:09:58.560Z,5.50
2018-09-21T20:12:28.531Z,4.60
2018-09-21T20:14:58.368Z,2.30
2018-09-21T20:17:28.119Z,4.27
2018-09-21T20:19:58.171Z,5.03
2018-09-21T20:22:28.167Z,5.63
2018-09-21T20:24:58.047Z,3.93
2018-09-21T20:27:27.991Z,10.77
2018-09-21T20:30:02.933Z,6.17
2018-09-21T20:32:37.852Z,3.20
2018-09-21T20:35:07.565Z,7.20
2018-09-21T20:37:37.496Z,3.87
2018-09-21T20:40:07.239Z,4.93
2018-09-21T20:42:37.168Z,4.33
2018-09-21T20:45:07.934Z,7.13
2018-09-21T20:47:37.759Z,5.37
2018-09-21T20:50:07.775Z,4.50
2018-09-21T20:52:37.727Z,6.50
2018-09-21T20:55:07.607Z,8.70
2018-09-21T20:57:37.434Z,5.43
2018-09-21T21:00:07.485Z,6.23
2018-09-21T21:02:37.238Z,9.53
2018-09-21T21:05:07.124Z,9.43
2018-09-21T21:07:37.510Z,6.20
2018-09-21T21:10:07.563Z,4.20
2018-09-21T21:12:37.552Z,6.13
2018-09-21T21:15:07.548Z,5.83
2018-09-21T21:17:37.626Z,9.00
2018-09-21T21:20:07.564Z,7.97
2018-09-21T21:22:37.444Z,7.97
2018-09-21T21:25:07.483Z,9.93
2018-09-21T21:27:37.640Z,6.00
2018-09-21T21:30:07.492Z,7.30
2018-09-21T21:32:37.507Z,4.30
2018-09-21T21:35:07.391Z,7.10
2018-09-21T21:37:37.419Z,7.40
2018-09-21T21:40:07.437Z,5.07
2018-09-21T21:42:37.401Z,12.10
2018-09-21T21:45:07.226Z,6.10
2018-09-21T21:47:37.255Z,6.73
2018-09-21T21:50:07.301Z,7.10
2018-09-21T21:52:37.280Z,5.90
2018-09-21T21:55:07.309Z,4.67
2018-09-21T21:57:37.193Z,6.20
2018-09-21T22:00:09.329Z,8.73
2018-09-21T22:02:39.371Z,16.27
2018-09-21T22:05:09.231Z,5.83
2018-09-21T22:07:39.456Z,6.80
2018-09-21T22:10:09.630Z,11.97
2018-09-21T22:12:44.518Z,6.90
2018-09-21T22:15:19.789Z,7.93
2018-09-21T22:17:50.443Z,14.93
2018-09-21T22:20:20.358Z,13.60
2018-09-21T22:22:50.146Z,12.63
2018-09-21T22:25:19.932Z,9.37
2018-09-21T22:27:49.713Z,7.97
2018-09-21T22:30:19.734Z,8.70
2018-09-21T22:32:49.563Z,8.10
2018-09-21T22:35:19.503Z,11.37
2018-09-21T22:37:49.300Z,12.87
2018-09-21T22:40:19.311Z,7.63
2018-09-21T22:42:49.187Z,11.43
2018-09-21T22:45:19.028Z,6.33
2018-09-21T22:47:48.889Z,9.00
2018-09-21T22:50:18.931Z,11.70
2018-09-21T22:52:48.886Z,10.60
2018-09-21T22:55:18.722Z,16.43
2018-09-21T22:57:48.704Z,8.40
2018-09-21T23:00:18.568Z,10.97
2018-09-21T23:02:48.587Z,13.17
2018-09-21T23:05:18.603Z,6.83
2018-09-21T23:07:48.505Z,13.97
2018-09-21T23:10:18.535Z,7.10
2018-09-21T23:12:48.580Z,8.40
2018-09-21T23:15:18.440Z,9.50
2018-09-21T23:17:48.406Z,17.03
2018-09-21T23:20:18.259Z,5.93
2018-09-21T23:22:48.127Z,8.00
2018-09-21T23:25:18.007Z,11.43
2018-09-21T23:27:48.071Z,7.57
2018-09-21T23:30:18.161Z,10.30
2018-09-21T23:32:48.229Z,12.33
2018-09-21T23:35:20.073Z,8.50
2018-09-21T23:37:49.904Z,9.27
2018-09-21T23:40:19.749Z,9.97
2018-09-21T23:42:49.791Z,6.07
2018-09-21T23:45:19.708Z,21.70
2018-09-21T23:47:50.296Z,12.97
2018-09-21T23:50:20.323Z,7.77
2018-09-21T23:52:50.298Z,12.93
2018-09-21T23:55:20.083Z,8.00
2018-09-21T23:57:50.120Z,6.23
